Time;durP1;ratioP1;P1;durP2;ratioP2;P2;SDS_P1;SDS_P2;PMS_P1;PMS_P2;Temp;Humidity;BMP_temperature;BMP_pressure;BME280_temperature;BME280_humidity;BME280_pressure;Samples;Min_cycle;Max_cycle;Signal;HPM_P1;HPM_P2
2021/01/15 00:01:07;;;;;;;17.30;10.83;;;3.20;99.90;;;;;;5117238;28;20432;-58
2021/01/15 00:03:38;;;;;;;15.67;11.17;;;3.10;99.90;;;;;;5115856;28;20465;-58
2021/01/15 00:06:07;;;;;;;19.77;11.03;;;3.20;99.90;;;;;;5120796;27;20436;-58
2021/01/15 00:08:39;;;;;;;17.27;11.30;;;3.30;99.90;;;;;;5137382;27;20460;-58
2021/01/15 00:11:13;;;;;;;18.27;11.33;;;3.20;99.90;;;;;;5129499;27;20431;-58
2021/01/15 00:13:39;;;;;;;16.03;10.90;;;3.30;99.90;;;;;;5137320;27;20504;-58
2021/01/15 00:16:05;;;;;;;19.03;11.80;;;3.30;99.90;;;;;;5126225;27;20832;-58
2021/01/15 00:18:30;;;;;;;16.83;10.57;;;3.30;99.90;;;;;;5129611;27;20721;-58
2021/01/15 00:20:56;;;;;;;16.37;11.27;;;3.30;99.90;;;;;;5128823;27;20176;-58
2021/01/15 00:23:22;;;;;;;15.20;11.67;;;3.40;99.90;;;;;;5124306;27;20195;-58
2021/01/15 00:25:47;;;;;;;18.57;12.40;;;3.30;99.90;;;;;;5116565;28;20611;-58
2021/01/15 00:28:14;;;;;;;17.10;11.90;;;;;;;;;;5116563;27;20340;-59
2021/01/15 00:30:40;;;;;;;19.57;11.20;;;3.50;99.90;;;;;;5116304;28;20181;-58
2021/01/15 00:33:05;;;;;;;17.47;11.50;;;3.40;99.90;;;;;;5119697;27;20791;-58
2021/01/15 00:35:31;;;;;;;17.20;11.93;;;3.40;99.90;;;;;;5123909;27;20439;-58
2021/01/15 00:37:57;;;;;;;18.60;12.03;;;3.40;99.90;;;;;;5118008;27;20182;-58
2021/01/15 00:40:22;;;;;;;16.43;11.97;;;3.20;99.90;;;;;;5134356;27;20244;-58
2021/01/15 00:42:48;;;;;;;17.03;11.10;;;3.30;99.90;;;;;;5114996;28;20789;-58
2021/01/15 00:45:16;;;;;;;17.70;11.10;;;3.30;99.90;;;;;;5116126;28;20186;-57
2021/01/15 00:47:43;;;;;;;16.53;11.30;;;3.20;99.90;;;;;;5115871;28;20208;-58
2021/01/15 00:50:11;;;;;;;17.30;12.20;;;3.30;99.90;;;;;;5095743;28;20977;-58
2021/01/15 00:52:36;;;;;;;17.10;11.40;;;3.20;99.90;;;;;;5107239;27;20436;-58
2021/01/15 00:55:02;;;;;;;16.17;10.97;;;3.30;99.90;;;;;;5116087;28;20829;-58
2021/01/15 00:57:28;;;;;;;18.90;12.53;;;3.30;99.90;;;;;;5115761;28;20180;-58
2021/01/15 00:59:53;;;;;;;18.00;11.60;;;3.30;99.90;;;;;;5115924;28;20428;-58
2021/01/15 01:02:19;;;;;;;18.60;12.43;;;3.20;99.90;;;;;;5116054;28;20639;-58
2021/01/15 01:04:44;;;;;;;18.70;12.40;;;3.30;99.90;;;;;;5115811;28;20188;-58
2021/01/15 01:07:10;;;;;;;19.40;12.03;;;3.40;99.90;;;;;;5115477;28;20216;-58
2021/01/15 01:09:36;;;;;;;19.13;12.37;;;3.30;99.90;;;;;;5121448;27;20185;-58
2021/01/15 01:12:01;;;;;;;17.77;11.43;;;3.30;99.90;;;;;;5116806;27;20188;-58
2021/01/15 01:14:27;;;;;;;18.73;12.37;;;3.20;99.90;;;;;;5136228;27;20196;-58
2021/01/15 01:16:53;;;;;;;16.23;10.97;;;3.30;99.90;;;;;;5132249;27;20641;-58
2021/01/15 01:19:18;;;;;;;18.83;11.70;;;3.30;99.90;;;;;;5115644;28;20180;-58
2021/01/15 01:21:44;;;;;;;13.90;10.90;;;3.30;99.90;;;;;;5117028;27;20597;-58
2021/01/15 01:24:10;;;;;;;19.23;12.17;;;3.30;99.90;;;;;;5135800;27;20273;-58
2021/01/15 01:26:35;;;;;;;20.87;12.83;;;3.40;99.90;;;;;;5135995;27;20178;-58
2021/01/15 01:29:01;;;;;;;20.47;12.90;;;3.20;99.90;;;;;;5134543;27;20206;-58
2021/01/15 01:31:26;;;;;;;15.03;12.23;;;3.30;99.90;;;;;;5119126;27;20311;-57
2021/01/15 01:33:52;;;;;;;15.33;10.50;;;3.30;99.90;;;;;;5114830;28;20187;-58
2021/01/15 01:36:17;;;;;;;19.37;12.33;;;3.30;99.90;;;;;;5115227;28;20615;-58
2021/01/15 01:38:43;;;;;;;18.20;12.73;;;3.20;99.90;;;;;;5119779;27;20184;-57
2021/01/15 01:41:10;;;;;;;15.90;11.57;;;3.30;99.90;;;;;;5135747;27;20233;-58
2021/01/15 01:43:35;;;;;;;17.53;11.40;;;3.30;99.90;;;;;;5121939;27;20501;-58
2021/01/15 01:46:04;;;;;;;16.63;12.13;;;3.30;99.90;;;;;;5115039;28;20447;-57
2021/01/15 01:48:29;;;;;;;18.73;13.10;;;3.30;99.90;;;;;;5113630;28;20213;-58
2021/01/15 01:50:55;;;;;;;19.60;11.77;;;3.20;99.90;;;;;;5113660;28;20468;-58
2021/01/15 01:53:25;;;;;;;16.77;11.93;;;3.30;99.90;;;;;;5114323;28;20182;-58
2021/01/15 01:55:51;;;;;;;15.90;11.77;;;3.30;99.90;;;;;;5107020;27;20444;-58
2021/01/15 01:58:17;;;;;;;16.33;11.47;;;3.30;99.90;;;;;;5135567;27;20439;-58
2021/01/15 02:00:44;;;;;;;14.87;11.07;;;3.30;99.90;;;;;;5117497;27;20653;-58
2021/01/15 02:03:17;;;;;;;19.73;12.50;;;3.20;99.90;;;;;;5114434;28;20951;-58
2021/01/15 02:05:43;;;;;;;17.43;10.97;;;3.30;99.90;;;;;;5113998;28;20438;-58
2021/01/15 02:08:09;;;;;;;18.13;12.17;;;3.20;99.90;;;;;;5114626;28;20829;-58
2021/01/15 02:10:43;;;;;;;16.43;11.87;;;3.20;99.90;;;;;;5114632;28;20452;-58
2021/01/15 02:13:45;;;;;;;20.80;12.30;;;3.30;99.90;;;;;;5112678;28;20934;-58
2021/01/15 02:16:21;;;;;;;20.07;13.50;;;3.40;99.90;;;;;;5105826;28;20461;-58
2021/01/15 02:18:56;;;;;;;15.47;10.80;;;3.30;99.90;;;;;;5114566;28;20432;-58
2021/01/15 02:21:50;;;;;;;17.63;12.50;;;3.30;99.90;;;;;;5112821;28;20492;-57
2021/01/15 02:25:13;;;;;;;22.33;13.00;;;3.30;99.90;;;;;;5113473;28;20428;-58
2021/01/15 02:28:20;;;;;;;19.83;12.80;;;3.20;99.90;;;;;;5100911;27;20464;-58
2021/01/15 02:31:16;;;;;;;17.73;11.00;;;3.20;99.90;;;;;;5071169;28;20432;-58
2021/01/15 02:34:09;;;;;;;18.93;13.10;;;3.20;99.90;;;;;;5070792;28;21030;-58
2021/01/15 02:36:49;;;;;;;17.97;12.03;;;3.30;99.90;;;;;;5119971;27;20766;-58
2021/01/15 02:39:31;;;;;;;21.67;12.87;;;3.20;99.90;;;;;;5115116;27;20936;-58
2021/01/15 02:41:59;;;;;;;17.57;12.60;;;3.10;99.90;;;;;;5122411;27;20423;-58
2021/01/15 02:44:26;;;;;;;21.87;12.73;;;3.20;99.90;;;;;;5114554;27;20952;-58
2021/01/15 02:46:57;;;;;;;25.67;13.97;;;3.20;99.90;;;;;;5121838;27;20895;-58
2021/01/15 02:49:23;;;;;;;23.37;14.13;;;3.20;99.90;;;;;;5113655;28;20924;-58
2021/01/15 02:51:49;;;;;;;21.17;12.77;;;3.20;99.90;;;;;;5116557;27;20421;-58
2021/01/15 02:54:15;;;;;;;22.70;13.30;;;3.10;99.90;;;;;;5114668;27;20423;-59
2021/01/15 02:56:41;;;;;;;23.17;14.20;;;3.20;99.90;;;;;;5115176;27;20941;-58
2021/01/15 02:59:07;;;;;;;22.10;13.77;;;3.10;99.90;;;;;;5121734;27;20940;-58
2021/01/15 03:01:42;;;;;;;21.47;14.73;;;3.10;99.90;;;;;;5120800;27;20446;-58
2021/01/15 03:04:26;;;;;;;18.80;12.80;;;3.10;99.90;;;;;;5116750;27;20455;-58
2021/01/15 03:07:03;;;;;;;20.63;14.00;;;3.00;99.90;;;;;;5120539;27;20448;-58
2021/01/15 03:09:36;;;;;;;20.50;13.50;;;3.00;99.90;;;;;;5116289;27;20428;-58
2021/01/15 03:12:05;;;;;;;24.33;14.87;;;3.10;99.90;;;;;;5118212;27;20909;-58
2021/01/15 03:14:35;;;;;;;26.10;13.30;;;3.10;99.90;;;;;;5122593;27;20434;-58
2021/01/15 03:17:05;;;;;;;22.20;14.20;;;3.00;99.90;;;;;;5113324;28;20508;-58
2021/01/15 03:19:33;;;;;;;26.60;15.03;;;2.90;99.90;;;;;;5113462;28;20423;-57
2021/01/15 03:22:08;;;;;;;22.40;14.37;;;3.00;99.90;;;;;;5113555;28;20443;-57
2021/01/15 03:24:33;;;;;;;21.20;12.30;;;3.10;99.90;;;;;;5113084;28;20431;-57
2021/01/15 03:27:00;;;;;;;21.37;12.87;;;3.00;99.90;;;;;;5112785;27;20934;-57
2021/01/15 03:29:26;;;;;;;21.40;14.87;;;3.10;99.90;;;;;;5129444;27;20178;-58
2021/01/15 03:31:51;;;;;;;22.03;12.00;;;3.00;99.90;;;;;;5115539;27;20502;-57
2021/01/15 03:34:17;;;;;;;20.67;13.30;;;3.00;99.90;;;;;;5115411;27;20232;-57
2021/01/15 03:36:42;;;;;;;23.37;14.57;;;3.10;99.90;;;;;;5118543;27;20512;-57
2021/01/15 03:39:08;;;;;;;19.73;13.17;;;3.10;99.90;;;;;;5125535;27;20183;-57
2021/01/15 03:41:33;;;;;;;23.00;14.30;;;3.10;99.90;;;;;;5118892;27;20176;-57
2021/01/15 03:43:59;;;;;;;20.00;13.00;;;3.00;99.90;;;;;;5118395;27;20402;-57
2021/01/15 03:46:25;;;;;;;20.40;12.57;;;3.00;99.90;;;;;;5112351;28;20547;-58
2021/01/15 03:48:50;;;;;;;22.30;14.70;;;3.20;99.90;;;;;;5126332;28;20625;-57
2021/01/15 03:51:16;;;;;;;21.10;12.43;;;3.10;99.90;;;;;;5128542;27;20185;-57
2021/01/15 03:53:46;;;;;;;20.87;13.73;;;3.10;99.90;;;;;;5127318;28;20306;-57
2021/01/15 03:56:15;;;;;;;24.37;13.87;;;3.10;99.90;;;;;;5101981;28;20201;-57
2021/01/15 03:58:41;;;;;;;21.10;13.50;;;3.10;99.90;;;;;;5129127;27;20437;-57
2021/01/15 04:01:06;;;;;;;23.93;14.63;;;3.10;99.90;;;;;;5122322;28;20439;-57
2021/01/15 04:03:32;;;;;;;20.53;13.57;;;3.10;99.90;;;;;;5113767;28;20188;-57
2021/01/15 04:05:58;;;;;;;20.50;13.37;;;3.20;99.90;;;;;;5128536;28;20670;-57
2021/01/15 04:08:23;;;;;;;21.40;13.57;;;3.10;99.90;;;;;;5111447;28;20290;-57
2021/01/15 04:10:49;;;;;;;19.17;13.57;;;3.20;99.90;;;;;;5118212;28;20173;-57
2021/01/15 04:13:14;;;;;;;21.07;12.67;;;3.20;99.90;;;;;;5125686;28;20325;-57
2021/01/15 04:15:40;;;;;;;22.43;13.53;;;3.20;99.90;;;;;;5117986;28;20173;-58
2021/01/15 04:18:06;;;;;;;26.50;14.77;;;3.30;99.90;;;;;;5128846;28;20487;-57
2021/01/15 04:20:31;;;;;;;21.90;14.07;;;3.30;99.90;;;;;;5113421;28;20186;-58
2021/01/15 04:22:57;;;;;;;21.03;14.77;;;3.30;99.90;;;;;;5112742;28;20186;-57
2021/01/15 04:25:22;;;;;;;24.13;13.23;;;3.20;99.90;;;;;;5125437;28;20176;-57
2021/01/15 04:27:48;;;;;;;20.30;13.63;;;3.20;99.90;;;;;;5122063;28;20285;-58
2021/01/15 04:30:14;;;;;;;23.77;14.77;;;3.20;99.90;;;;;;5118110;28;20182;-58
2021/01/15 04:32:46;;;;;;;20.63;14.10;;;3.00;99.90;;;;;;5125362;28;20215;-58
2021/01/15 04:35:17;;;;;;;21.93;14.80;;;3.20;99.90;;;;;;5128742;28;20432;-58
2021/01/15 04:37:43;;;;;;;22.70;13.97;;;3.10;99.90;;;;;;5125287;27;20440;-59
2021/01/15 04:40:10;;;;;;;19.77;13.30;;;3.20;99.90;;;;;;5122412;27;20434;-58
2021/01/15 04:42:41;;;;;;;23.00;13.90;;;3.20;99.90;;;;;;5114299;28;20441;-59
2021/01/15 04:45:11;;;;;;;20.57;12.77;;;3.30;99.90;;;;;;5097862;28;20465;-59
2021/01/15 04:47:41;;;;;;;21.77;13.43;;;3.30;99.90;;;;;;5114875;28;20998;-59
2021/01/15 04:50:10;;;;;;;21.10;13.43;;;3.30;99.90;;;;;;5124519;27;20450;-59
2021/01/15 04:52:44;;;;;;;19.53;13.17;;;3.30;99.90;;;;;;5121738;27;20431;-58
2021/01/15 04:55:16;;;;;;;22.83;13.00;;;3.40;99.90;;;;;;5109192;27;20468;-58
2021/01/15 04:57:42;;;;;;;23.73;13.53;;;3.40;99.90;;;;;;5121124;27;20440;-60
2021/01/15 05:00:12;;;;;;;18.00;12.43;;;3.50;99.90;;;;;;5115839;28;20953;-58
2021/01/15 05:02:44;;;;;;;21.27;13.47;;;3.40;99.90;;;;;;5115898;28;20453;-58
2021/01/15 05:05:24;;;;;;;19.00;12.60;;;3.50;99.90;;;;;;5115725;28;20490;-59
2021/01/15 05:08:24;;;;;;;19.50;12.50;;;3.50;99.90;;;;;;5113983;28;20516;-61
2021/01/15 05:10:52;;;;;;;19.33;12.30;;;3.60;99.90;;;;;;5121158;27;20439;-60
2021/01/15 05:13:18;;;;;;;19.00;12.70;;;3.50;99.90;;;;;;5123116;27;20439;-60
2021/01/15 05:15:45;;;;;;;16.43;12.07;;;3.40;99.90;;;;;;5113661;28;20754;-60
2021/01/15 05:18:12;;;;;;;16.87;11.30;;;3.30;99.90;;;;;;5117983;27;20178;-60
2021/01/15 05:20:38;;;;;;;16.63;10.87;;;3.30;99.90;;;;;;5128393;27;20484;-59
2021/01/15 05:23:07;;;;;;;15.77;11.17;;;3.40;99.90;;;;;;5121932;27;20933;-59
2021/01/15 05:25:41;;;;;;;15.50;10.60;;;3.30;99.90;;;;;;5120889;27;20796;-59
2021/01/15 05:28:06;;;;;;;15.10;10.27;;;3.30;99.90;;;;;;5128712;27;20843;-59
2021/01/15 05:30:33;;;;;;;16.23;11.63;;;3.40;99.90;;;;;;5123842;27;20427;-60
2021/01/15 05:32:59;;;;;;;19.10;11.50;;;3.50;99.90;;;;;;5125638;27;20294;-60
2021/01/15 05:35:46;;;;;;;17.50;11.13;;;3.40;99.90;;;;;;5128296;27;20429;-59
2021/01/15 05:38:17;;;;;;;11.70;9.00;;;3.50;99.90;;;;;;5122764;27;20486;-59
2021/01/15 05:40:42;;;;;;;15.40;10.53;;;3.50;99.90;;;;;;5111906;27;20820;-59
2021/01/15 05:43:18;;;;;;;13.40;9.03;;;3.50;99.90;;;;;;5123620;27;20442;-59
2021/01/15 05:46:05;;;;;;;17.63;10.07;;;3.50;99.90;;;;;;5113536;27;20262;-60
2021/01/15 05:48:31;;;;;;;13.00;9.50;;;3.60;99.90;;;;;;5120058;27;21044;-60
2021/01/15 05:50:57;;;;;;;16.57;9.73;;;3.70;99.90;;;;;;5115034;27;20456;-62
2021/01/15 05:53:23;;;;;;;13.93;10.33;;;3.70;99.90;;;;;;5120065;27;20457;-62
2021/01/15 05:55:55;;;;;;;12.93;9.30;;;3.80;99.90;;;;;;5120807;27;20179;-61
2021/01/15 05:58:21;;;;;;;13.87;10.03;;;3.80;99.90;;;;;;5120291;27;20174;-61
2021/01/15 06:00:51;;;;;;;13.53;8.70;;;3.60;99.90;;;;;;5114082;28;20496;-61
2021/01/15 06:03:17;;;;;;;12.93;9.07;;;3.70;99.90;;;;;;5113439;28;20276;-61
2021/01/15 06:05:49;;;;;;;14.40;9.27;;;3.70;99.90;;;;;;5112643;28;20472;-61
2021/01/15 06:08:14;;;;;;;14.30;9.07;;;3.70;99.90;;;;;;5113402;28;20463;-57
2021/01/15 06:10:43;;;;;;;13.13;9.23;;;3.70;99.90;;;;;;5113615;28;20443;-57
2021/01/15 06:13:09;;;;;;;16.70;8.23;;;3.90;99.90;;;;;;5110312;27;20275;-57
2021/01/15 06:15:47;;;;;;;13.40;10.50;;;3.70;99.90;;;;;;5111665;28;20448;-56
2021/01/15 06:18:17;;;;;;;16.47;10.30;;;3.70;99.90;;;;;;5112966;28;20985;-57
2021/01/15 06:20:46;;;;;;;11.57;9.00;;;3.70;99.90;;;;;;5116802;27;20444;-57
2021/01/15 06:23:13;;;;;;;11.60;9.40;;;3.70;99.90;;;;;;5112665;28;20996;-59
2021/01/15 06:25:56;;;;;;;14.03;9.67;;;3.70;99.90;;;;;;5113361;28;20436;-57
2021/01/15 06:28:32;;;;;;;13.93;8.90;;;3.70;99.90;;;;;;5112696;28;20466;-58
2021/01/15 06:30:59;;;;;;;10.77;8.33;;;3.70;99.90;;;;;;5111386;28;20467;-58
2021/01/15 06:33:24;;;;;;;14.20;9.47;;;3.80;99.90;;;;;;5113055;28;20931;-57
2021/01/15 06:35:50;;;;;;;14.80;9.90;;;3.80;99.90;;;;;;5112147;28;20440;-57
2021/01/15 06:38:18;;;;;;;16.03;10.87;;;3.70;99.90;;;;;;5113070;27;20189;-58
2021/01/15 06:40:45;;;;;;;13.57;9.50;;;3.70;99.90;;;;;;5111982;28;20195;-57
2021/01/15 06:43:22;;;;;;;14.40;9.63;;;3.80;99.90;;;;;;5115209;27;20486;-58
2021/01/15 06:46:02;;;;;;;17.30;11.30;;;3.80;99.90;;;;;;5113043;28;20517;-57
2021/01/15 06:48:38;;;;;;;12.63;9.40;;;3.70;99.90;;;;;;5111812;28;20463;-56
2021/01/15 06:51:08;;;;;;;14.00;9.80;;;3.60;99.90;;;;;;5109737;27;20433;-57
2021/01/15 06:53:39;;;;;;;16.23;9.40;;;3.60;99.90;;;;;;5106735;28;20459;-57
2021/01/15 06:56:06;;;;;;;13.77;8.63;;;3.60;99.90;;;;;;5107835;28;20999;-58
2021/01/15 06:58:41;;;;;;;17.03;10.37;;;3.70;99.90;;;;;;5111576;28;20433;-56
2021/01/15 07:01:37;;;;;;;11.60;8.50;;;3.70;99.90;;;;;;5108166;28;20850;-58
2021/01/15 07:04:35;;;;;;;15.60;8.87;;;3.70;99.90;;;;;;5112552;27;20448;-57
2021/01/15 07:07:14;;;;;;;17.47;8.97;;;3.80;99.90;;;;;;5111575;28;20446;-57
2021/01/15 07:09:48;;;;;;;15.30;10.07;;;3.90;99.90;;;;;;5108688;28;20439;-57
2021/01/15 07:12:16;;;;;;;15.27;9.63;;;3.90;99.90;;;;;;5113193;27;20444;-57
2021/01/15 07:14:45;;;;;;;12.30;9.33;;;3.90;99.90;;;;;;5111815;28;20498;-58
2021/01/15 07:17:29;;;;;;;14.73;9.47;;;3.80;99.90;;;;;;5110318;28;20523;-58
2021/01/15 07:20:03;;;;;;;11.57;8.33;;;3.80;99.90;;;;;;5108737;28;20402;-58
2021/01/15 07:22:42;;;;;;;14.37;9.23;;;3.80;99.90;;;;;;5106740;28;20433;-57
2021/01/15 07:25:09;;;;;;;13.30;9.90;;;3.70;99.90;;;;;;5112146;28;20437;-57
2021/01/15 07:27:35;;;;;;;17.47;9.87;;;3.70;99.90;;;;;;5111931;28;20469;-57
2021/01/15 07:30:04;;;;;;;15.57;10.20;;;3.70;99.90;;;;;;5110919;27;20437;-57
2021/01/15 07:32:31;;;;;;;15.60;9.07;;;3.70;99.90;;;;;;5110518;28;20226;-56
2021/01/15 07:35:01;;;;;;;20.63;10.87;;;3.70;99.90;;;;;;5108368;28;20464;-57
2021/01/15 07:37:30;;;;;;;19.70;11.10;;;3.70;99.90;;;;;;5118446;27;20627;-57
2021/01/15 07:39:59;;;;;;;15.10;10.03;;;3.70;99.90;;;;;;5106164;28;20435;-57
2021/01/15 07:42:47;;;;;;;14.83;9.90;;;3.70;99.90;;;;;;5106308;28;20501;-58
2021/01/15 07:45:25;;;;;;;15.53;8.30;;;3.70;99.90;;;;;;5106838;28;20808;-57
2021/01/15 07:47:52;;;;;;;17.33;10.37;;;3.80;99.90;;;;;;5110161;28;20458;-58
2021/01/15 07:50:31;;;;;;;14.50;9.37;;;3.80;99.90;;;;;;5113119;28;20465;-57
2021/01/15 07:53:19;;;;;;;12.33;9.17;;;3.70;99.90;;;;;;5111236;28;20936;-57
2021/01/15 07:55:45;;;;;;;16.77;10.33;;;3.70;99.90;;;;;;5112072;28;20500;-58
2021/01/15 07:58:12;;;;;;;11.73;9.30;;;3.90;99.90;;;;;;5112655;28;20774;-58
2021/01/15 08:00:38;;;;;;;15.60;9.40;;;4.00;99.90;;;;;;5111718;28;20512;-57
2021/01/15 08:03:04;;;;;;;14.27;9.57;;;4.00;99.90;;;;;;5111526;28;20540;-57
2021/01/15 08:05:29;;;;;;;16.50;11.60;;;4.00;99.90;;;;;;5109014;28;20528;-57
2021/01/15 08:08:16;;;;;;;14.27;9.40;;;3.90;99.90;;;;;;5103439;28;20478;-57
2021/01/15 08:10:48;;;;;;;15.40;10.20;;;3.70;99.90;;;;;;5110863;28;20639;-57
2021/01/15 08:13:18;;;;;;;14.73;9.97;;;3.60;99.90;;;;;;5111510;28;20533;-57
2021/01/15 08:15:44;;;;;;;16.07;10.80;;;3.80;99.90;;;;;;5111746;28;21065;-58
2021/01/15 08:18:10;;;;;;;17.10;10.53;;;3.70;99.90;;;;;;5119338;28;20489;-58
2021/01/15 08:20:36;;;;;;;13.33;9.73;;;3.60;99.90;;;;;;5115670;28;20518;-57
2021/01/15 08:23:02;;;;;;;15.87;10.63;;;3.60;99.90;;;;;;5114014;28;20189;-59
2021/01/15 08:25:30;;;;;;;10.77;8.80;;;3.70;99.90;;;;;;5115063;27;20952;-57
2021/01/15 08:27:57;;;;;;;17.10;10.07;;;3.70;99.90;;;;;;5116620;27;20885;-57
2021/01/15 08:30:23;;;;;;;19.73;10.43;;;3.60;99.90;;;;;;5116232;27;20452;-57
2021/01/15 08:32:49;;;;;;;17.33;10.80;;;3.60;99.90;;;;;;5115093;28;20459;-58
2021/01/15 08:35:26;;;;;;;13.50;9.80;;;3.60;99.90;;;;;;5112209;27;20935;-57
2021/01/15 08:37:59;;;;;;;12.97;8.73;;;3.80;99.90;;;;;;5110052;28;20333;-57
2021/01/15 08:40:29;;;;;;;13.23;9.63;;;3.70;99.90;;;;;;5135699;27;20436;-57
2021/01/15 08:42:58;;;;;;;13.60;9.20;;;3.80;99.90;;;;;;5135769;27;20437;-59
2021/01/15 08:45:25;;;;;;;13.27;9.90;;;3.90;99.90;;;;;;5128237;27;20440;-58
2021/01/15 08:47:53;;;;;;;13.57;8.20;;;3.90;99.90;;;;;;5111083;28;20987;-58
2021/01/15 08:50:19;;;;;;;19.07;13.20;;;3.90;99.90;;;;;;5108806;28;20518;-57
2021/01/15 08:52:47;;;;;;;16.47;10.80;;;3.90;99.90;;;;;;5110496;28;20521;-58
2021/01/15 08:55:14;;;;;;;22.93;14.27;;;4.00;99.90;;;;;;5114049;28;20183;-58
2021/01/15 08:57:39;;;;;;;21.20;13.87;;;4.00;99.90;;;;;;5111387;27;20436;-58
2021/01/15 09:00:14;;;;;;;18.70;12.43;;;4.10;99.90;;;;;;5114887;28;20537;-57
2021/01/15 09:02:42;;;;;;;20.00;13.43;;;4.00;99.90;;;;;;5114876;28;20181;-57
2021/01/15 09:05:15;;;;;;;11.67;9.47;;;4.10;99.90;;;;;;5115265;27;20874;-58
2021/01/15 09:07:48;;;;;;;15.83;10.50;;;4.00;99.90;;;;;;5113275;28;20502;-59
2021/01/15 09:10:15;;;;;;;12.60;9.20;;;4.10;99.90;;;;;;5112540;27;20525;-59
2021/01/15 09:12:43;;;;;;;14.10;9.60;;;4.00;99.90;;;;;;5126213;27;20435;-58
2021/01/15 09:15:19;;;;;;;12.57;8.80;;;6.10;99.90;;;;;;5120835;27;20438;-59
2021/01/15 09:17:46;;;;;;;15.13;10.50;;;3.80;99.90;;;;;;5112421;28;20529;-58
2021/01/15 09:20:13;;;;;;;17.83;11.40;;;3.80;99.90;;;;;;5115068;28;20766;-58
2021/01/15 09:22:38;;;;;;;12.20;8.77;;;3.80;99.90;;;;;;5121128;27;20925;-59
2021/01/15 09:25:04;;;;;;;11.43;8.00;;;3.80;99.90;;;;;;5126820;27;20441;-58
2021/01/15 09:27:30;;;;;;;16.27;10.00;;;3.70;99.90;;;;;;5122365;27;20612;-60
2021/01/15 09:29:56;;;;;;;14.17;10.00;;;3.70;99.90;;;;;;5121811;27;20430;-58
2021/01/15 09:32:21;;;;;;;13.80;9.47;;;3.60;99.90;;;;;;5129708;27;20266;-59
2021/01/15 09:34:47;;;;;;;15.03;10.37;;;3.60;99.90;;;;;;5124404;27;20583;-58
2021/01/15 09:37:12;;;;;;;14.10;9.13;;;3.50;99.90;;;;;;5113706;27;20181;-59
2021/01/15 09:39:38;;;;;;;18.40;10.30;;;3.40;99.90;;;;;;5129713;27;20183;-59
2021/01/15 09:42:04;;;;;;;12.23;9.60;;;;;;;;;;5123425;27;20181;-60
2021/01/15 09:44:31;;;;;;;15.10;8.57;;;3.50;99.90;;;;;;5114315;27;20185;-60
2021/01/15 09:47:02;;;;;;;17.07;11.53;;;3.30;99.90;;;;;;5120051;27;20922;-59
2021/01/15 09:49:31;;;;;;;16.67;9.60;;;3.20;99.90;;;;;;5115026;27;20440;-59
2021/01/15 09:51:56;;;;;;;12.97;10.87;;;3.00;99.90;;;;;;5132415;27;20536;-60
2021/01/15 09:54:22;;;;;;;15.60;10.03;;;3.10;99.90;;;;;;5124406;27;20976;-62
2021/01/15 09:56:47;;;;;;;17.23;11.17;;;3.20;99.90;;;;;;5126490;27;20202;-59
2021/01/15 09:59:17;;;;;;;13.00;9.40;;;3.10;99.90;;;;;;5113717;27;20185;-59
2021/01/15 10:01:47;;;;;;;12.10;9.30;;;;;;;;;;5125140;27;20186;-59
2021/01/15 10:04:16;;;;;;;17.97;11.13;;;3.50;99.90;;;;;;5116577;27;20432;-61
2021/01/15 10:06:44;;;;;;;11.47;8.60;;;3.50;99.90;;;;;;5113698;28;20429;-59
2021/01/15 10:09:11;;;;;;;16.17;9.67;;;3.60;99.90;;;;;;5132258;27;20964;-59
2021/01/15 10:11:41;;;;;;;13.20;8.57;;;3.50;99.90;;;;;;5132507;27;20763;-59
2021/01/15 10:14:08;;;;;;;12.87;8.63;;;3.60;99.90;;;;;;5129682;27;20433;-59
2021/01/15 10:16:41;;;;;;;12.40;8.50;;;3.50;99.90;;;;;;5114641;27;20432;-61
2021/01/15 10:19:07;;;;;;;17.87;8.70;;;3.60;99.90;;;;;;5113173;28;20452;-59
2021/01/15 10:21:35;;;;;;;15.43;9.80;;;3.50;99.90;;;;;;5115642;27;20486;-60
2021/01/15 10:24:02;;;;;;;15.03;10.73;;;3.70;99.90;;;;;;5115978;27;20490;-60
2021/01/15 10:26:33;;;;;;;12.07;8.37;;;3.60;99.90;;;;;;5112964;28;20448;-59
2021/01/15 10:29:02;;;;;;;13.93;9.90;;;3.70;99.90;;;;;;5121660;27;20460;-59
2021/01/15 10:31:30;;;;;;;12.47;9.27;;;3.60;99.90;;;;;;5132966;27;21058;-59
2021/01/15 10:33:56;;;;;;;9.57;6.50;;;3.50;99.90;;;;;;5128629;27;20472;-60
2021/01/15 10:36:22;;;;;;;8.83;5.90;;;3.50;99.90;;;;;;5121667;27;20579;-59
2021/01/15 10:38:50;;;;;;;9.30;6.50;;;3.30;99.90;;;;;;5116267;27;20458;-58
2021/01/15 10:41:26;;;;;;;7.13;6.37;;;3.20;99.90;;;;;;5118215;27;20799;-58
2021/01/15 10:43:52;;;;;;;6.83;5.37;;;3.30;99.90;;;;;;5112581;27;20916;-59
2021/01/15 10:46:27;;;;;;;7.87;6.10;;;3.30;99.90;;;;;;5118092;27;20438;-58
2021/01/15 10:48:53;;;;;;;7.30;4.80;;;3.30;99.90;;;;;;5132970;27;20210;-58
2021/01/15 10:51:18;;;;;;;6.90;4.90;;;3.50;99.90;;;;;;5128906;27;20423;-58
2021/01/15 10:53:44;;;;;;;4.70;4.13;;;3.50;99.90;;;;;;5132795;27;20172;-58
2021/01/15 10:56:10;;;;;;;8.73;6.60;;;3.50;81.60;;;;;;5132639;27;20220;-58
2021/01/15 10:58:35;;;;;;;8.93;6.93;;;3.50;46.50;;;;;;5125650;27;20626;-59
2021/01/15 11:01:01;;;;;;;9.23;6.60;;;3.50;46.50;;;;;;5119428;27;20196;-59
2021/01/15 11:03:26;;;;;;;9.13;6.47;;;3.50;43.80;;;;;;5119586;27;20184;-59
2021/01/15 11:05:52;;;;;;;8.27;6.17;;;3.40;46.40;;;;;;5111781;27;20271;-58
2021/01/15 11:08:17;;;;;;;8.97;6.87;;;3.50;60.00;;;;;;5114051;27;20742;-59
2021/01/15 11:10:43;;;;;;;9.23;7.17;;;3.60;62.70;;;;;;5118281;27;20255;-58
2021/01/15 11:13:09;;;;;;;8.83;6.20;;;3.70;58.50;;;;;;5122217;27;20221;-58
2021/01/15 11:15:34;;;;;;;11.87;8.17;;;3.90;44.90;;;;;;5113538;27;20209;-60
2021/01/15 11:18:00;;;;;;;11.93;7.93;;;3.70;50.00;;;;;;5116766;27;20183;-59
2021/01/15 11:20:25;;;;;;;11.63;9.67;;;3.80;48.70;;;;;;5115790;27;20187;-59
2021/01/15 11:22:51;;;;;;;14.60;8.37;;;3.80;50.00;;;;;;5114592;27;20186;-59
2021/01/15 11:25:17;;;;;;;12.60;8.33;;;3.70;50.00;;;;;;5116687;27;20218;-58
2021/01/15 11:27:43;;;;;;;11.30;8.50;;;3.60;49.30;;;;;;5115031;27;20198;-59
2021/01/15 11:30:09;;;;;;;18.40;9.60;;;3.60;44.20;;;;;;5111499;28;20536;-59
2021/01/15 11:32:40;;;;;;;13.97;8.57;;;3.50;45.20;;;;;;5113777;27;20467;-58
2021/01/15 11:35:07;;;;;;;18.33;10.73;;;3.50;45.10;;;;;;5121701;27;20849;-59
2021/01/15 11:37:35;;;;;;;14.40;10.80;;;3.40;45.50;;;;;;5115829;27;20599;-60
2021/01/15 11:40:04;;;;;;;15.73;10.10;;;3.40;45.50;;;;;;5110488;28;20446;-58
2021/01/15 11:42:29;;;;;;;15.97;10.03;;;3.30;46.40;;;;;;5111860;28;20533;-58
2021/01/15 11:44:55;;;;;;;14.53;8.90;;;3.10;57.80;;;;;;5117810;27;20612;-58
2021/01/15 11:47:20;;;;;;;10.67;7.40;;;3.10;58.30;;;;;;5119542;27;20202;-59
2021/01/15 11:49:46;;;;;;;11.33;8.20;;;3.10;58.20;;;;;;5123924;27;20181;-59
2021/01/15 11:52:12;;;;;;;11.97;7.73;;;2.90;65.30;;;;;;5119378;28;20183;-59
2021/01/15 11:54:37;;;;;;;10.27;7.83;;;2.90;59.60;;;;;;5121282;28;20186;-58
2021/01/15 11:57:03;;;;;;;12.60;8.30;;;3.00;67.60;;;;;;5116178;28;20610;-59
2021/01/15 11:59:28;;;;;;;12.37;7.50;;;3.00;70.40;;;;;;5116227;28;20191;-57
2021/01/15 12:01:55;;;;;;;18.27;11.80;;;3.00;64.00;;;;;;5116179;28;20623;-60
2021/01/15 12:04:21;;;;;;;22.60;11.00;;;3.10;55.70;;;;;;5120763;28;20195;-58
2021/01/15 12:06:54;;;;;;;14.53;9.63;;;3.20;51.30;;;;;;5115209;27;20783;-58
2021/01/15 12:09:20;;;;;;;13.20;10.10;;;3.30;46.30;;;;;;5123920;27;20247;-58
2021/01/15 12:11:46;;;;;;;17.73;11.23;;;3.30;24.70;;;;;;5126245;28;20431;-59
2021/01/15 12:14:12;;;;;;;10.83;7.80;;;3.20;28.90;;;;;;5121854;28;20459;-59
2021/01/15 12:16:39;;;;;;;13.97;9.27;;;3.10;23.80;;;;;;5119815;28;20177;-58
2021/01/15 12:19:07;;;;;;;12.40;8.30;;;2.90;48.30;;;;;;5120830;27;20519;-58
2021/01/15 12:21:34;;;;;;;15.30;10.37;;;2.90;48.50;;;;;;5125876;28;20483;-58
2021/01/15 12:24:03;;;;;;;16.53;9.60;;;3.00;52.60;;;;;;5123560;27;20550;-58
2021/01/15 12:26:29;;;;;;;12.77;9.33;;;3.00;47.30;;;;;;5132195;27;20439;-58
2021/01/15 12:28:55;;;;;;;11.20;8.40;;;3.00;51.70;;;;;;5122040;27;20459;-58
2021/01/15 12:31:20;;;;;;;12.50;8.30;;;3.10;49.70;;;;;;5120565;28;20781;-58
2021/01/15 12:33:46;;;;;;;12.30;8.50;;;3.00;52.10;;;;;;5122562;28;20178;-58
2021/01/15 12:36:12;;;;;;;11.70;8.10;;;;;;;;;;5118121;28;20653;-58
2021/01/15 12:38:38;;;;;;;11.07;8.63;;;2.80;48.80;;;;;;5127888;27;20185;-58
2021/01/15 12:41:03;;;;;;;12.07;7.93;;;2.80;32.90;;;;;;5121380;28;20497;-59
2021/01/15 12:43:29;;;;;;;12.77;8.73;;;2.90;31.00;;;;;;5123686;27;20176;-58
2021/01/15 12:45:54;;;;;;;12.47;7.30;;;3.10;30.40;;;;;;5114037;28;20275;-58
2021/01/15 12:48:20;;;;;;;11.23;8.03;;;3.10;24.90;;;;;;5124419;28;20201;-59
2021/01/15 12:50:46;;;;;;;12.07;7.90;;;3.00;30.30;;;;;;5124187;28;20623;-59
2021/01/15 12:53:12;;;;;;;12.10;8.13;;;3.10;37.80;;;;;;5111456;28;20182;-58